EmailTwitter


Observations de surface / France / LFPO (07149)

Régions: Québec | Canada | États-Unis | Europe | France | UK | Ailleurs
Station
Affichage
Infos & localisation pour LFPO (07149) | Aide pour décoder les METARs

Observations prises le 2019-02-20 à 11H00 UTC à PARIS/ORLY, FR (LFPO)

Etat du ciel: quelques nuages.

Température: 8.0 Celsius

Point de rosée: 7.0 Celsius

Humidité relative: 93%

Vents: Variable à 4 km/h ou 2 noeuds.

Pression au niveau moyen de la mer: 102.40 kilopascals.

Visibilité horizontale: 5.59 milles terrestres ou 8.95 kilomètres.

Observation METAR:

LFPO 201100Z VRB02KT 9000 FEW015 08/07 Q1024 NOSIG=